sensor_id;sensor_type;location;lat;lon;timestamp;P1;durP1;ratioP1;P2;durP2;ratioP2
45077;SDS011;60508;42.622;25.416;2023-01-23T00:00:40;24.20;;;9.00;;
45077;SDS011;60508;42.622;25.416;2023-01-23T00:03:07;15.68;;;8.10;;
45077;SDS011;60508;42.622;25.416;2023-01-23T00:05:33;16.90;;;9.80;;
45077;SDS011;60508;42.622;25.416;2023-01-23T00:08:00;17.60;;;9.23;;
45077;SDS011;60508;42.622;25.416;2023-01-23T00:10:26;15.35;;;7.28;;
45077;SDS011;60508;42.622;25.416;2023-01-23T00:12:52;20.65;;;7.90;;
45077;SDS011;60508;42.622;25.416;2023-01-23T00:15:19;15.80;;;6.68;;
45077;SDS011;60508;42.622;25.416;2023-01-23T00:17:45;15.30;;;8.10;;
45077;SDS011;60508;42.622;25.416;2023-01-23T00:20:11;18.45;;;9.70;;
45077;SDS011;60508;42.622;25.416;2023-01-23T00:22:37;16.17;;;7.90;;
45077;SDS011;60508;42.622;25.416;2023-01-23T00:25:05;22.70;;;9.82;;
45077;SDS011;60508;42.622;25.416;2023-01-23T00:27:31;21.83;;;7.53;;
45077;SDS011;60508;42.622;25.416;2023-01-23T00:29:57;14.90;;;6.82;;
45077;SDS011;60508;42.622;25.416;2023-01-23T00:32:23;14.75;;;6.93;;
45077;SDS011;60508;42.622;25.416;2023-01-23T00:34:50;20.73;;;9.32;;
45077;SDS011;60508;42.622;25.416;2023-01-23T00:37:16;15.18;;;7.00;;
45077;SDS011;60508;42.622;25.416;2023-01-23T00:39:42;13.70;;;7.47;;
45077;SDS011;60508;42.622;25.416;2023-01-23T00:42:10;16.90;;;6.93;;
45077;SDS011;60508;42.622;25.416;2023-01-23T00:44:37;13.63;;;7.45;;
45077;SDS011;60508;42.622;25.416;2023-01-23T00:47:03;11.45;;;6.97;;
45077;SDS011;60508;42.622;25.416;2023-01-23T00:49:29;23.35;;;7.45;;
45077;SDS011;60508;42.622;25.416;2023-01-23T00:51:55;19.17;;;7.05;;
45077;SDS011;60508;42.622;25.416;2023-01-23T00:54:21;13.93;;;7.28;;
45077;SDS011;60508;42.622;25.416;2023-01-23T00:56:49;22.05;;;8.35;;
45077;SDS011;60508;42.622;25.416;2023-01-23T00:59:15;18.77;;;7.85;;
45077;SDS011;60508;42.622;25.416;2023-01-23T01:01:41;14.77;;;8.00;;
45077;SDS011;60508;42.622;25.416;2023-01-23T01:04:08;10.00;;;6.97;;
45077;SDS011;60508;42.622;25.416;2023-01-23T01:06:35;18.95;;;7.50;;
45077;SDS011;60508;42.622;25.416;2023-01-23T01:09:01;20.98;;;8.05;;
45077;SDS011;60508;42.622;25.416;2023-01-23T01:11:27;16.35;;;6.93;;
45077;SDS011;60508;42.622;25.416;2023-01-23T01:13:57;12.68;;;6.70;;
45077;SDS011;60508;42.622;25.416;2023-01-23T01:16:23;20.90;;;8.32;;
45077;SDS011;60508;42.622;25.416;2023-01-23T01:18:50;10.48;;;6.60;;
45077;SDS011;60508;42.622;25.416;2023-01-23T01:21:16;16.42;;;7.75;;
45077;SDS011;60508;42.622;25.416;2023-01-23T01:23:43;16.92;;;7.93;;
45077;SDS011;60508;42.622;25.416;2023-01-23T01:26:09;27.70;;;8.40;;
45077;SDS011;60508;42.622;25.416;2023-01-23T01:28:37;15.30;;;7.53;;
45077;SDS011;60508;42.622;25.416;2023-01-23T01:31:07;23.73;;;8.97;;
45077;SDS011;60508;42.622;25.416;2023-01-23T01:33:36;15.00;;;8.50;;
45077;SDS011;60508;42.622;25.416;2023-01-23T01:36:06;17.38;;;9.35;;
45077;SDS011;60508;42.622;25.416;2023-01-23T01:38:37;21.02;;;7.60;;
45077;SDS011;60508;42.622;25.416;2023-01-23T01:41:04;11.80;;;7.40;;
45077;SDS011;60508;42.622;25.416;2023-01-23T01:43:32;23.00;;;8.93;;
45077;SDS011;60508;42.622;25.416;2023-01-23T01:51:26;28.65;;;9.20;;
45077;SDS011;60508;42.622;25.416;2023-01-23T01:56:46;15.10;;;7.78;;
45077;SDS011;60508;42.622;25.416;2023-01-23T01:59:16;15.50;;;8.30;;
45077;SDS011;60508;42.622;25.416;2023-01-23T02:01:44;13.88;;;6.75;;
45077;SDS011;60508;42.622;25.416;2023-01-23T02:04:12;14.15;;;7.65;;
45077;SDS011;60508;42.622;25.416;2023-01-23T02:06:40;14.10;;;7.00;;
45077;SDS011;60508;42.622;25.416;2023-01-23T02:09:08;27.88;;;7.53;;
45077;SDS011;60508;42.622;25.416;2023-01-23T02:11:40;12.70;;;6.63;;
45077;SDS011;60508;42.622;25.416;2023-01-23T02:14:08;15.93;;;6.43;;
45077;SDS011;60508;42.622;25.416;2023-01-23T02:16:35;12.18;;;6.72;;
45077;SDS011;60508;42.622;25.416;2023-01-23T02:19:17;15.98;;;7.88;;
45077;SDS011;60508;42.622;25.416;2023-01-23T02:22:50;17.58;;;7.40;;
45077;SDS011;60508;42.622;25.416;2023-01-23T02:27:36;18.77;;;8.00;;
45077;SDS011;60508;42.622;25.416;2023-01-23T02:30:02;18.58;;;7.55;;
45077;SDS011;60508;42.622;25.416;2023-01-23T02:32:31;17.83;;;8.73;;
45077;SDS011;60508;42.622;25.416;2023-01-23T02:34:57;16.30;;;7.57;;
45077;SDS011;60508;42.622;25.416;2023-01-23T02:37:30;17.60;;;7.82;;
45077;SDS011;60508;42.622;25.416;2023-01-23T02:39:59;13.93;;;7.88;;
45077;SDS011;60508;42.622;25.416;2023-01-23T02:42:28;15.68;;;6.93;;
45077;SDS011;60508;42.622;25.416;2023-01-23T02:44:58;15.77;;;6.97;;
45077;SDS011;60508;42.622;25.416;2023-01-23T02:47:24;11.95;;;7.93;;
45077;SDS011;60508;42.622;25.416;2023-01-23T02:49:55;21.00;;;8.05;;
45077;SDS011;60508;42.622;25.416;2023-01-23T02:52:21;17.13;;;8.88;;
45077;SDS011;60508;42.622;25.416;2023-01-23T02:54:49;17.45;;;7.32;;
45077;SDS011;60508;42.622;25.416;2023-01-23T02:57:15;28.75;;;10.45;;
45077;SDS011;60508;42.622;25.416;2023-01-23T02:59:41;18.05;;;9.48;;
45077;SDS011;60508;42.622;25.416;2023-01-23T03:02:26;16.27;;;8.65;;
45077;SDS011;60508;42.622;25.416;2023-01-23T03:04:53;20.08;;;8.32;;
45077;SDS011;60508;42.622;25.416;2023-01-23T03:07:19;20.63;;;9.55;;
45077;SDS011;60508;42.622;25.416;2023-01-23T03:09:45;14.68;;;8.00;;
45077;SDS011;60508;42.622;25.416;2023-01-23T03:12:13;19.88;;;8.80;;
45077;SDS011;60508;42.622;25.416;2023-01-23T03:14:41;16.90;;;8.23;;
45077;SDS011;60508;42.622;25.416;2023-01-23T03:17:07;17.42;;;7.75;;
45077;SDS011;60508;42.622;25.416;2023-01-23T03:19:35;12.68;;;7.10;;
45077;SDS011;60508;42.622;25.416;2023-01-23T03:22:03;13.30;;;7.45;;
45077;SDS011;60508;42.622;25.416;2023-01-23T03:24:30;19.15;;;7.25;;
45077;SDS011;60508;42.622;25.416;2023-01-23T03:26:59;24.95;;;8.68;;
45077;SDS011;60508;42.622;25.416;2023-01-23T03:29:26;24.42;;;9.40;;
45077;SDS011;60508;42.622;25.416;2023-01-23T03:32:13;22.17;;;8.40;;
45077;SDS011;60508;42.622;25.416;2023-01-23T03:34:41;17.75;;;8.70;;
45077;SDS011;60508;42.622;25.416;2023-01-23T03:37:09;15.02;;;8.18;;
45077;SDS011;60508;42.622;25.416;2023-01-23T03:39:37;19.38;;;8.95;;
45077;SDS011;60508;42.622;25.416;2023-01-23T03:42:22;25.27;;;10.13;;
45077;SDS011;60508;42.622;25.416;2023-01-23T03:44:50;15.77;;;9.23;;
45077;SDS011;60508;42.622;25.416;2023-01-23T03:47:19;27.83;;;9.85;;
45077;SDS011;60508;42.622;25.416;2023-01-23T03:49:46;24.92;;;9.75;;
45077;SDS011;60508;42.622;25.416;2023-01-23T03:52:13;19.63;;;10.75;;
45077;SDS011;60508;42.622;25.416;2023-01-23T03:54:40;21.10;;;10.77;;
45077;SDS011;60508;42.622;25.416;2023-01-23T03:57:08;19.85;;;9.55;;
45077;SDS011;60508;42.622;25.416;2023-01-23T04:00:04;18.23;;;9.77;;
45077;SDS011;60508;42.622;25.416;2023-01-23T04:02:43;21.30;;;12.20;;
45077;SDS011;60508;42.622;25.416;2023-01-23T04:05:12;29.50;;;11.63;;
45077;SDS011;60508;42.622;25.416;2023-01-23T04:07:38;22.23;;;10.57;;
45077;SDS011;60508;42.622;25.416;2023-01-23T04:10:04;22.98;;;10.30;;
45077;SDS011;60508;42.622;25.416;2023-01-23T04:12:30;20.65;;;9.95;;
45077;SDS011;60508;42.622;25.416;2023-01-23T04:14:56;25.10;;;10.88;;
45077;SDS011;60508;42.622;25.416;2023-01-23T04:17:22;26.08;;;10.73;;
45077;SDS011;60508;42.622;25.416;2023-01-23T04:19:50;17.15;;;9.45;;
45077;SDS011;60508;42.622;25.416;2023-01-23T04:22:16;25.50;;;9.43;;
45077;SDS011;60508;42.622;25.416;2023-01-23T04:24:46;17.15;;;8.52;;
45077;SDS011;60508;42.622;25.416;2023-01-23T04:27:13;21.88;;;9.05;;
45077;SDS011;60508;42.622;25.416;2023-01-23T04:29:40;21.85;;;9.70;;
45077;SDS011;60508;42.622;25.416;2023-01-23T04:32:07;19.48;;;8.35;;
45077;SDS011;60508;42.622;25.416;2023-01-23T04:34:37;16.23;;;8.23;;
45077;SDS011;60508;42.622;25.416;2023-01-23T04:37:04;15.32;;;8.82;;
45077;SDS011;60508;42.622;25.416;2023-01-23T04:39:31;22.40;;;8.80;;
45077;SDS011;60508;42.622;25.416;2023-01-23T04:41:58;18.35;;;9.10;;
45077;SDS011;60508;42.622;25.416;2023-01-23T04:44:56;18.73;;;10.23;;
45077;SDS011;60508;42.622;25.416;2023-01-23T04:47:41;30.33;;;10.50;;
45077;SDS011;60508;42.622;25.416;2023-01-23T04:50:10;16.02;;;9.63;;
45077;SDS011;60508;42.622;25.416;2023-01-23T04:52:37;28.08;;;9.55;;
45077;SDS011;60508;42.622;25.416;2023-01-23T04:55:03;18.77;;;9.55;;
45077;SDS011;60508;42.622;25.416;2023-01-23T04:57:30;18.55;;;9.25;;
45077;SDS011;60508;42.622;25.416;2023-01-23T05:00:06;15.27;;;8.10;;
45077;SDS011;60508;42.622;25.416;2023-01-23T05:02:32;18.23;;;9.38;;
45077;SDS011;60508;42.622;25.416;2023-01-23T05:04:58;20.17;;;8.85;;
45077;SDS011;60508;42.622;25.416;2023-01-23T05:07:24;21.90;;;8.55;;
45077;SDS011;60508;42.622;25.416;2023-01-23T05:10:03;15.00;;;8.75;;
45077;SDS011;60508;42.622;25.416;2023-01-23T05:12:30;16.85;;;8.13;;
45077;SDS011;60508;42.622;25.416;2023-01-23T05:14:57;17.20;;;9.07;;
45077;SDS011;60508;42.622;25.416;2023-01-23T05:17:24;20.17;;;8.88;;
45077;SDS011;60508;42.622;25.416;2023-01-23T05:19:52;17.70;;;9.30;;
45077;SDS011;60508;42.622;25.416;2023-01-23T05:22:18;15.15;;;8.93;;
45077;SDS011;60508;42.622;25.416;2023-01-23T05:24:44;17.67;;;8.10;;
45077;SDS011;60508;42.622;25.416;2023-01-23T05:27:10;14.90;;;8.80;;
45077;SDS011;60508;42.622;25.416;2023-01-23T05:29:40;10.75;;;7.15;;
45077;SDS011;60508;42.622;25.416;2023-01-23T05:32:13;16.52;;;7.55;;
45077;SDS011;60508;42.622;25.416;2023-01-23T05:34:43;15.93;;;7.47;;
45077;SDS011;60508;42.622;25.416;2023-01-23T05:37:24;17.80;;;8.07;;
45077;SDS011;60508;42.622;25.416;2023-01-23T05:39:58;18.63;;;8.65;;
45077;SDS011;60508;42.622;25.416;2023-01-23T05:42:30;30.45;;;9.25;;
45077;SDS011;60508;42.622;25.416;2023-01-23T05:45:22;23.60;;;8.73;;
45077;SDS011;60508;42.622;25.416;2023-01-23T05:47:48;19.08;;;8.73;;
45077;SDS011;60508;42.622;25.416;2023-01-23T05:50:17;17.45;;;9.13;;
45077;SDS011;60508;42.622;25.416;2023-01-23T05:52:44;14.32;;;8.50;;
45077;SDS011;60508;42.622;25.416;2023-01-23T05:55:11;12.60;;;8.88;;
45077;SDS011;60508;42.622;25.416;2023-01-23T05:57:39;18.00;;;8.05;;
45077;SDS011;60508;42.622;25.416;2023-01-23T06:00:37;13.90;;;7.00;;
45077;SDS011;60508;42.622;25.416;2023-01-23T06:03:32;19.80;;;8.77;;
45077;SDS011;60508;42.622;25.416;2023-01-23T06:06:25;14.90;;;8.30;;
45077;SDS011;60508;42.622;25.416;2023-01-23T06:08:51;11.55;;;7.95;;
45077;SDS011;60508;42.622;25.416;2023-01-23T06:11:18;15.82;;;8.57;;
45077;SDS011;60508;42.622;25.416;2023-01-23T06:13:44;13.38;;;7.90;;
45077;SDS011;60508;42.622;25.416;2023-01-23T06:16:10;15.77;;;7.65;;
45077;SDS011;60508;42.622;25.416;2023-01-23T06:18:40;17.50;;;8.68;;
45077;SDS011;60508;42.622;25.416;2023-01-23T06:21:07;15.73;;;8.48;;
45077;SDS011;60508;42.622;25.416;2023-01-23T06:23:35;11.35;;;7.13;;
45077;SDS011;60508;42.622;25.416;2023-01-23T06:26:01;14.70;;;7.97;;
45077;SDS011;60508;42.622;25.416;2023-01-23T06:28:28;16.23;;;8.15;;
45077;SDS011;60508;42.622;25.416;2023-01-23T06:30:54;13.50;;;8.02;;
45077;SDS011;60508;42.622;25.416;2023-01-23T06:33:37;13.23;;;7.53;;
45077;SDS011;60508;42.622;25.416;2023-01-23T06:36:06;16.08;;;7.85;;
45077;SDS011;60508;42.622;25.416;2023-01-23T06:38:34;14.23;;;6.90;;
45077;SDS011;60508;42.622;25.416;2023-01-23T06:41:04;12.38;;;6.88;;
45077;SDS011;60508;42.622;25.416;2023-01-23T06:43:35;18.77;;;7.55;;
45077;SDS011;60508;42.622;25.416;2023-01-23T06:46:02;11.10;;;7.75;;
45077;SDS011;60508;42.622;25.416;2023-01-23T06:48:28;18.83;;;9.07;;
45077;SDS011;60508;42.622;25.416;2023-01-23T06:50:58;13.50;;;8.25;;
45077;SDS011;60508;42.622;25.416;2023-01-23T06:53:25;27.15;;;9.10;;
45077;SDS011;60508;42.622;25.416;2023-01-23T06:55:52;13.18;;;7.90;;
45077;SDS011;60508;42.622;25.416;2023-01-23T06:58:19;17.42;;;9.73;;
45077;SDS011;60508;42.622;25.416;2023-01-23T07:00:45;13.38;;;8.63;;
45077;SDS011;60508;42.622;25.416;2023-01-23T07:03:32;15.82;;;7.82;;
45077;SDS011;60508;42.622;25.416;2023-01-23T07:06:00;17.67;;;7.47;;
45077;SDS011;60508;42.622;25.416;2023-01-23T07:08:32;18.00;;;7.80;;
45077;SDS011;60508;42.622;25.416;2023-01-23T07:10:59;13.25;;;9.73;;
45077;SDS011;60508;42.622;25.416;2023-01-23T07:13:26;14.20;;;8.95;;
45077;SDS011;60508;42.622;25.416;2023-01-23T07:15:52;18.20;;;10.23;;
45077;SDS011;60508;42.622;25.416;2023-01-23T07:18:22;12.38;;;8.50;;
45077;SDS011;60508;42.622;25.416;2023-01-23T07:20:49;16.00;;;7.70;;
45077;SDS011;60508;42.622;25.416;2023-01-23T07:23:16;17.40;;;8.35;;
45077;SDS011;60508;42.622;25.416;2023-01-23T07:25:42;11.93;;;8.38;;
45077;SDS011;60508;42.622;25.416;2023-01-23T07:28:08;16.83;;;8.27;;
45077;SDS011;60508;42.622;25.416;2023-01-23T07:30:34;17.00;;;9.70;;
45077;SDS011;60508;42.622;25.416;2023-01-23T07:33:00;15.77;;;8.32;;
45077;SDS011;60508;42.622;25.416;2023-01-23T07:35:27;15.88;;;8.77;;
45077;SDS011;60508;42.622;25.416;2023-01-23T07:37:53;20.50;;;10.35;;
45077;SDS011;60508;42.622;25.416;2023-01-23T07:40:18;19.45;;;10.65;;
45077;SDS011;60508;42.622;25.416;2023-01-23T07:42:44;15.43;;;9.32;;
45077;SDS011;60508;42.622;25.416;2023-01-23T07:45:12;19.38;;;8.88;;
45077;SDS011;60508;42.622;25.416;2023-01-23T07:47:38;20.33;;;9.35;;
45077;SDS011;60508;42.622;25.416;2023-01-23T07:50:05;17.13;;;8.65;;
45077;SDS011;60508;42.622;25.416;2023-01-23T07:52:32;17.15;;;9.10;;
45077;SDS011;60508;42.622;25.416;2023-01-23T07:54:59;15.45;;;10.02;;
45077;SDS011;60508;42.622;25.416;2023-01-23T07:57:24;14.38;;;9.40;;
45077;SDS011;60508;42.622;25.416;2023-01-23T07:59:51;21.77;;;8.35;;
45077;SDS011;60508;42.622;25.416;2023-01-23T08:02:17;17.83;;;9.93;;
45077;SDS011;60508;42.622;25.416;2023-01-23T08:04:43;28.35;;;10.93;;
45077;SDS011;60508;42.622;25.416;2023-01-23T08:07:10;19.70;;;9.23;;
45077;SDS011;60508;42.622;25.416;2023-01-23T08:09:36;18.40;;;9.90;;
45077;SDS011;60508;42.622;25.416;2023-01-23T08:12:03;19.30;;;9.93;;
45077;SDS011;60508;42.622;25.416;2023-01-23T08:14:30;19.00;;;9.18;;
45077;SDS011;60508;42.622;25.416;2023-01-23T08:16:56;16.65;;;10.23;;
45077;SDS011;60508;42.622;25.416;2023-01-23T08:19:22;16.83;;;9.48;;
45077;SDS011;60508;42.622;25.416;2023-01-23T08:24:17;16.92;;;9.45;;
45077;SDS011;60508;42.622;25.416;2023-01-23T08:26:44;20.38;;;10.20;;
45077;SDS011;60508;42.622;25.416;2023-01-23T08:29:10;16.08;;;8.80;;
45077;SDS011;60508;42.622;25.416;2023-01-23T08:31:37;25.17;;;10.25;;
45077;SDS011;60508;42.622;25.416;2023-01-23T08:34:03;14.82;;;9.27;;
45077;SDS011;60508;42.622;25.416;2023-01-23T08:36:29;15.77;;;8.55;;
45077;SDS011;60508;42.622;25.416;2023-01-23T08:38:55;35.20;;;10.07;;
45077;SDS011;60508;42.622;25.416;2023-01-23T08:41:21;17.08;;;9.52;;
45077;SDS011;60508;42.622;25.416;2023-01-23T08:43:50;13.65;;;7.00;;
45077;SDS011;60508;42.622;25.416;2023-01-23T08:46:17;15.30;;;7.07;;
45077;SDS011;60508;42.622;25.416;2023-01-23T08:48:43;13.93;;;7.40;;
45077;SDS011;60508;42.622;25.416;2023-01-23T08:51:10;16.10;;;7.18;;
45077;SDS011;60508;42.622;25.416;2023-01-23T08:53:38;9.88;;;6.57;;
45077;SDS011;60508;42.622;25.416;2023-01-23T08:56:05;13.98;;;6.88;;
45077;SDS011;60508;42.622;25.416;2023-01-23T08:58:33;13.52;;;7.15;;
45077;SDS011;60508;42.622;25.416;2023-01-23T09:00:59;14.35;;;7.68;;
45077;SDS011;60508;42.622;25.416;2023-01-23T09:03:25;14.60;;;7.63;;
45077;SDS011;60508;42.622;25.416;2023-01-23T09:05:51;12.73;;;6.95;;
45077;SDS011;60508;42.622;25.416;2023-01-23T09:08:17;12.50;;;7.22;;
45077;SDS011;60508;42.622;25.416;2023-01-23T09:10:43;12.95;;;6.72;;
45077;SDS011;60508;42.622;25.416;2023-01-23T09:13:09;15.55;;;6.32;;
45077;SDS011;60508;42.622;25.416;2023-01-23T09:15:36;14.85;;;7.95;;
45077;SDS011;60508;42.622;25.416;2023-01-23T09:18:03;17.02;;;6.68;;
45077;SDS011;60508;42.622;25.416;2023-01-23T09:20:30;12.07;;;6.53;;
45077;SDS011;60508;42.622;25.416;2023-01-23T09:22:57;14.07;;;8.25;;
45077;SDS011;60508;42.622;25.416;2023-01-23T09:25:23;9.50;;;5.82;;
45077;SDS011;60508;42.622;25.416;2023-01-23T09:27:49;16.38;;;8.27;;
45077;SDS011;60508;42.622;25.416;2023-01-23T09:30:16;13.70;;;7.57;;
45077;SDS011;60508;42.622;25.416;2023-01-23T09:32:42;10.55;;;6.90;;
45077;SDS011;60508;42.622;25.416;2023-01-23T09:35:08;16.55;;;8.20;;
45077;SDS011;60508;42.622;25.416;2023-01-23T09:37:35;6.75;;;5.15;;
45077;SDS011;60508;42.622;25.416;2023-01-23T09:40:20;10.00;;;5.63;;
45077;SDS011;60508;42.622;25.416;2023-01-23T09:42:48;18.15;;;6.75;;
45077;SDS011;60508;42.622;25.416;2023-01-23T09:45:16;10.65;;;6.03;;
45077;SDS011;60508;42.622;25.416;2023-01-23T09:47:48;9.07;;;5.32;;
45077;SDS011;60508;42.622;25.416;2023-01-23T09:50:22;15.35;;;6.95;;
45077;SDS011;60508;42.622;25.416;2023-01-23T09:52:58;12.60;;;6.65;;
45077;SDS011;60508;42.622;25.416;2023-01-23T09:58:21;12.38;;;6.65;;
45077;SDS011;60508;42.622;25.416;2023-01-23T10:00:51;10.25;;;6.07;;
45077;SDS011;60508;42.622;25.416;2023-01-23T10:03:18;13.57;;;7.80;;
45077;SDS011;60508;42.622;25.416;2023-01-23T10:05:47;8.63;;;6.78;;
45077;SDS011;60508;42.622;25.416;2023-01-23T10:08:21;14.20;;;6.75;;
45077;SDS011;60508;42.622;25.416;2023-01-23T10:10:57;11.93;;;6.57;;
45077;SDS011;60508;42.622;25.416;2023-01-23T10:25:08;18.92;;;6.88;;
45077;SDS011;60508;42.622;25.416;2023-01-23T10:27:40;12.27;;;6.68;;
45077;SDS011;60508;42.622;25.416;2023-01-23T10:35:39;10.32;;;7.00;;
45077;SDS011;60508;42.622;25.416;2023-01-23T10:38:21;11.57;;;6.63;;
45077;SDS011;60508;42.622;25.416;2023-01-23T10:40:49;10.70;;;6.55;;
45077;SDS011;60508;42.622;25.416;2023-01-23T10:43:34;9.60;;;5.97;;
45077;SDS011;60508;42.622;25.416;2023-01-23T10:46:00;8.05;;;4.88;;
45077;SDS011;60508;42.622;25.416;2023-01-23T10:51:32;8.90;;;5.43;;
45077;SDS011;60508;42.622;25.416;2023-01-23T10:56:34;17.27;;;7.18;;
45077;SDS011;60508;42.622;25.416;2023-01-23T10:59:04;10.75;;;6.07;;
45077;SDS011;60508;42.622;25.416;2023-01-23T11:01:33;12.73;;;6.23;;
45077;SDS011;60508;42.622;25.416;2023-01-23T11:04:14;9.23;;;5.83;;
45077;SDS011;60508;42.622;25.416;2023-01-23T11:06:45;7.25;;;5.03;;
45077;SDS011;60508;42.622;25.416;2023-01-23T11:09:25;8.55;;;5.57;;
45077;SDS011;60508;42.622;25.416;2023-01-23T11:12:05;8.73;;;6.03;;
45077;SDS011;60508;42.622;25.416;2023-01-23T11:14:31;9.68;;;5.55;;
45077;SDS011;60508;42.622;25.416;2023-01-23T11:16:58;8.57;;;6.32;;
45077;SDS011;60508;42.622;25.416;2023-01-23T11:19:26;8.15;;;5.45;;
45077;SDS011;60508;42.622;25.416;2023-01-23T11:21:58;8.77;;;5.40;;
45077;SDS011;60508;42.622;25.416;2023-01-23T11:27:00;12.27;;;5.63;;
45077;SDS011;60508;42.622;25.416;2023-01-23T11:29:29;6.75;;;5.15;;
45077;SDS011;60508;42.622;25.416;2023-01-23T11:32:10;9.65;;;5.22;;
45077;SDS011;60508;42.622;25.416;2023-01-23T11:34:46;10.75;;;6.45;;
45077;SDS011;60508;42.622;25.416;2023-01-23T11:37:31;12.43;;;7.65;;
45077;SDS011;60508;42.622;25.416;2023-01-23T11:40:06;10.85;;;6.93;;
45077;SDS011;60508;42.622;25.416;2023-01-23T11:42:41;11.23;;;6.30;;
45077;SDS011;60508;42.622;25.416;2023-01-23T11:45:53;7.80;;;6.00;;
45077;SDS011;60508;42.622;25.416;2023-01-23T12:00:21;9.30;;;5.22;;
45077;SDS011;60508;42.622;25.416;2023-01-23T12:11:17;12.13;;;5.18;;
45077;SDS011;60508;42.622;25.416;2023-01-23T12:19:56;9.75;;;5.13;;
45077;SDS011;60508;42.622;25.416;2023-01-23T12:27:41;10.68;;;5.95;;
45077;SDS011;60508;42.622;25.416;2023-01-23T12:45:58;15.05;;;6.43;;
45077;SDS011;60508;42.622;25.416;2023-01-23T12:48:43;7.80;;;5.20;;
45077;SDS011;60508;42.622;25.416;2023-01-23T12:51:19;8.45;;;5.85;;
45077;SDS011;60508;42.622;25.416;2023-01-23T12:53:48;9.23;;;5.90;;
45077;SDS011;60508;42.622;25.416;2023-01-23T12:56:19;6.95;;;4.95;;
45077;SDS011;60508;42.622;25.416;2023-01-23T13:01:48;13.68;;;6.72;;
45077;SDS011;60508;42.622;25.416;2023-01-23T13:10:12;11.68;;;5.57;;
45077;SDS011;60508;42.622;25.416;2023-01-23T13:12:52;12.40;;;6.15;;
45077;SDS011;60508;42.622;25.416;2023-01-23T13:15:21;19.38;;;6.70;;
45077;SDS011;60508;42.622;25.416;2023-01-23T13:18:01;14.13;;;8.10;;
45077;SDS011;60508;42.622;25.416;2023-01-23T13:20:33;15.80;;;6.38;;
45077;SDS011;60508;42.622;25.416;2023-01-23T13:23:37;14.07;;;6.82;;
45077;SDS011;60508;42.622;25.416;2023-01-23T13:26:10;17.73;;;6.57;;
45077;SDS011;60508;42.622;25.416;2023-01-23T13:29:01;13.05;;;6.50;;
45077;SDS011;60508;42.622;25.416;2023-01-23T13:41:42;10.00;;;6.28;;
45077;SDS011;60508;42.622;25.416;2023-01-23T13:47:25;11.70;;;6.78;;
45077;SDS011;60508;42.622;25.416;2023-01-23T13:50:29;14.18;;;6.25;;
45077;SDS011;60508;42.622;25.416;2023-01-23T13:53:11;11.68;;;6.85;;
45077;SDS011;60508;42.622;25.416;2023-01-23T13:56:01;15.38;;;7.72;;
45077;SDS011;60508;42.622;25.416;2023-01-23T13:58:47;15.90;;;9.25;;
45077;SDS011;60508;42.622;25.416;2023-01-23T14:01:19;16.65;;;9.57;;
45077;SDS011;60508;42.622;25.416;2023-01-23T14:04:21;13.23;;;6.43;;
45077;SDS011;60508;42.622;25.416;2023-01-23T14:07:28;12.88;;;6.03;;
45077;SDS011;60508;42.622;25.416;2023-01-23T14:12:40;18.00;;;8.90;;
45077;SDS011;60508;42.622;25.416;2023-01-23T14:15:40;14.30;;;5.78;;
45077;SDS011;60508;42.622;25.416;2023-01-23T14:18:23;23.60;;;8.30;;
45077;SDS011;60508;42.622;25.416;2023-01-23T14:20:50;11.35;;;6.80;;
45077;SDS011;60508;42.622;25.416;2023-01-23T14:23:17;11.98;;;7.50;;
45077;SDS011;60508;42.622;25.416;2023-01-23T14:25:50;20.85;;;8.90;;
45077;SDS011;60508;42.622;25.416;2023-01-23T14:28:17;17.17;;;7.25;;
45077;SDS011;60508;42.622;25.416;2023-01-23T14:30:53;16.25;;;7.55;;
45077;SDS011;60508;42.622;25.416;2023-01-23T14:33:24;18.95;;;10.10;;
45077;SDS011;60508;42.622;25.416;2023-01-23T14:35:52;23.20;;;8.70;;
45077;SDS011;60508;42.622;25.416;2023-01-23T14:38:23;22.13;;;7.90;;
45077;SDS011;60508;42.622;25.416;2023-01-23T14:40:54;19.15;;;8.73;;
45077;SDS011;60508;42.622;25.416;2023-01-23T14:43:22;19.30;;;9.63;;
45077;SDS011;60508;42.622;25.416;2023-01-23T14:45:59;19.70;;;7.28;;
45077;SDS011;60508;42.622;25.416;2023-01-23T14:48:26;19.67;;;7.88;;
45077;SDS011;60508;42.622;25.416;2023-01-23T14:53:44;14.15;;;7.22;;
45077;SDS011;60508;42.622;25.416;2023-01-23T14:56:16;16.92;;;7.60;;
45077;SDS011;60508;42.622;25.416;2023-01-23T14:58:43;13.77;;;7.25;;
45077;SDS011;60508;42.622;25.416;2023-01-23T15:01:11;16.90;;;7.30;;
45077;SDS011;60508;42.622;25.416;2023-01-23T15:03:39;20.75;;;9.52;;
45077;SDS011;60508;42.622;25.416;2023-01-23T15:06:19;16.30;;;8.45;;
45077;SDS011;60508;42.622;25.416;2023-01-23T15:08:47;11.82;;;7.03;;
45077;SDS011;60508;42.622;25.416;2023-01-23T15:11:14;12.85;;;8.27;;
45077;SDS011;60508;42.622;25.416;2023-01-23T15:13:49;26.63;;;9.52;;
45077;SDS011;60508;42.622;25.416;2023-01-23T15:16:20;16.23;;;9.27;;
45077;SDS011;60508;42.622;25.416;2023-01-23T15:21:33;15.25;;;8.40;;
45077;SDS011;60508;42.622;25.416;2023-01-23T15:26:34;16.02;;;10.63;;
45077;SDS011;60508;42.622;25.416;2023-01-23T15:31:34;15.63;;;8.75;;
45077;SDS011;60508;42.622;25.416;2023-01-23T15:44:40;23.52;;;9.07;;
45077;SDS011;60508;42.622;25.416;2023-01-23T15:47:07;17.75;;;10.93;;
45077;SDS011;60508;42.622;25.416;2023-01-23T15:49:35;20.52;;;9.63;;
45077;SDS011;60508;42.622;25.416;2023-01-23T15:54:57;15.43;;;8.43;;
45077;SDS011;60508;42.622;25.416;2023-01-23T15:57:25;21.08;;;8.85;;
45077;SDS011;60508;42.622;25.416;2023-01-23T15:59:52;17.25;;;8.15;;
45077;SDS011;60508;42.622;25.416;2023-01-23T16:02:19;23.40;;;11.48;;
45077;SDS011;60508;42.622;25.416;2023-01-23T16:04:47;17.23;;;7.53;;
45077;SDS011;60508;42.622;25.416;2023-01-23T16:07:24;21.33;;;8.07;;
45077;SDS011;60508;42.622;25.416;2023-01-23T16:09:54;20.27;;;9.65;;
45077;SDS011;60508;42.622;25.416;2023-01-23T16:12:22;10.95;;;7.93;;
45077;SDS011;60508;42.622;25.416;2023-01-23T16:14:52;19.42;;;7.65;;
45077;SDS011;60508;42.622;25.416;2023-01-23T16:17:18;15.40;;;8.63;;
45077;SDS011;60508;42.622;25.416;2023-01-23T16:19:44;12.05;;;7.50;;
45077;SDS011;60508;42.622;25.416;2023-01-23T16:22:16;17.60;;;7.65;;
45077;SDS011;60508;42.622;25.416;2023-01-23T16:24:49;17.08;;;9.15;;
45077;SDS011;60508;42.622;25.416;2023-01-23T16:27:15;16.48;;;8.32;;
45077;SDS011;60508;42.622;25.416;2023-01-23T16:29:43;16.15;;;8.00;;
45077;SDS011;60508;42.622;25.416;2023-01-23T16:32:09;11.88;;;7.38;;
45077;SDS011;60508;42.622;25.416;2023-01-23T16:34:36;18.73;;;9.48;;
45077;SDS011;60508;42.622;25.416;2023-01-23T16:37:01;23.80;;;10.52;;
45077;SDS011;60508;42.622;25.416;2023-01-23T16:39:29;18.40;;;9.80;;
45077;SDS011;60508;42.622;25.416;2023-01-23T16:41:56;20.75;;;9.80;;
45077;SDS011;60508;42.622;25.416;2023-01-23T16:44:22;15.30;;;8.13;;
45077;SDS011;60508;42.622;25.416;2023-01-23T16:46:49;17.40;;;8.75;;
45077;SDS011;60508;42.622;25.416;2023-01-23T16:49:17;21.20;;;9.95;;
45077;SDS011;60508;42.622;25.416;2023-01-23T16:51:50;14.18;;;8.27;;
45077;SDS011;60508;42.622;25.416;2023-01-23T16:54:22;21.23;;;7.85;;
45077;SDS011;60508;42.622;25.416;2023-01-23T16:56:49;18.92;;;8.70;;